createdAt,value
2024-01-09T00:01:32.989Z,103268.66
2024-01-09T00:03:59.778Z,103270.72
2024-01-09T00:06:26.573Z,103270.31
2024-01-09T00:08:53.692Z,103275.56
2024-01-09T00:11:20.514Z,103271.19
2024-01-09T00:13:47.201Z,103262.53
2024-01-09T00:16:13.829Z,103257.75
2024-01-09T00:18:40.581Z,103271.97
2024-01-09T00:21:07.274Z,103262.78
2024-01-09T00:23:34.129Z,103265.06
2024-01-09T00:26:01.897Z,103268.91
2024-01-09T00:28:28.528Z,103261.69
2024-01-09T00:30:55.401Z,103253.22
2024-01-09T00:33:22.256Z,103251.47
2024-01-09T00:35:49.214Z,103250.16
2024-01-09T00:38:15.945Z,103250.69
2024-01-09T00:40:42.611Z,103243.34
2024-01-09T00:43:09.188Z,103241.13
2024-01-09T00:45:39.061Z,103244.50
2024-01-09T00:48:07.458Z,103232.69
2024-01-09T00:50:34.960Z,103229.94
2024-01-09T00:53:01.789Z,103232.47
2024-01-09T00:55:30.469Z,103230.56
2024-01-09T00:57:57.110Z,103229.47
2024-01-09T01:00:23.785Z,103229.97
2024-01-09T01:02:50.770Z,103233.69
2024-01-09T01:05:19.989Z,103239.75
2024-01-09T01:07:46.703Z,103238.25
2024-01-09T01:10:17.595Z,103241.09
2024-01-09T01:12:46.763Z,103235.63
2024-01-09T01:15:13.381Z,103239.31
2024-01-09T01:17:40.117Z,103232.97
2024-01-09T01:20:07.652Z,103233.81
2024-01-09T01:22:34.417Z,103228.22
2024-01-09T01:25:01.031Z,103226.16
2024-01-09T01:27:27.613Z,103222.84
2024-01-09T01:29:56.689Z,103223.94
2024-01-09T01:32:23.297Z,103218.59
2024-01-09T01:34:50.002Z,103223.66
2024-01-09T01:37:16.660Z,103233.84
2024-01-09T01:39:43.297Z,103227.31
2024-01-09T01:42:09.933Z,103227.13
2024-01-09T01:44:36.630Z,103233.69
2024-01-09T01:47:04.657Z,103228.72
2024-01-09T01:49:31.404Z,103220.13
2024-01-09T01:51:58.550Z,103222.66
2024-01-09T01:54:25.728Z,103221.25
2024-01-09T01:56:53.338Z,103229.44
2024-01-09T01:59:23.312Z,103224.00
2024-01-09T02:01:50.411Z,103231.94
2024-01-09T02:04:20.616Z,103235.53
2024-01-09T02:06:50.121Z,103229.59
2024-01-09T02:09:17.552Z,103231.56
2024-01-09T02:11:44.677Z,103233.22
2024-01-09T02:14:12.419Z,103235.25
2024-01-09T02:16:39.295Z,103223.41
2024-01-09T02:19:06.101Z,103230.63
2024-01-09T02:21:33.006Z,103227.91
2024-01-09T02:23:59.649Z,103238.75
2024-01-09T02:26:56.981Z,103228.84
2024-01-09T02:29:34.262Z,103229.31
2024-01-09T02:32:03.934Z,103236.91
2024-01-09T02:34:34.763Z,103225.09
2024-01-09T02:37:01.504Z,103226.97
2024-01-09T02:39:30.854Z,103228.72
2024-01-09T02:41:57.577Z,103223.41
2024-01-09T02:44:24.270Z,103219.97
2024-01-09T02:46:50.908Z,103225.06
2024-01-09T02:49:17.609Z,103215.72
2024-01-09T02:51:44.271Z,103211.09
2024-01-09T02:54:10.916Z,103206.84
2024-01-09T02:56:40.607Z,103213.66
2024-01-09T02:59:07.398Z,103201.47
2024-01-09T03:01:36.367Z,103195.13
2024-01-09T03:04:03.261Z,103198.28
2024-01-09T03:06:32.430Z,103188.28
2024-01-09T03:08:59.129Z,103189.72
2024-01-09T03:11:25.780Z,103192.66
2024-01-09T03:13:52.466Z,103193.63
2024-01-09T03:16:19.239Z,103199.75
2024-01-09T03:18:46.075Z,103195.09
2024-01-09T03:21:15.930Z,103193.97
2024-01-09T03:23:42.552Z,103192.81
2024-01-09T03:26:09.226Z,103195.97
2024-01-09T03:28:37.668Z,103187.84
2024-01-09T03:31:04.563Z,103185.25
2024-01-09T03:33:34.141Z,103178.25
2024-01-09T03:36:05.780Z,103174.34
2024-01-09T03:38:32.557Z,103174.00
2024-01-09T03:40:59.469Z,103176.47
2024-01-09T03:43:26.086Z,103176.13
2024-01-09T03:45:54.673Z,103175.06
2024-01-09T03:48:21.443Z,103173.19
2024-01-09T03:50:52.733Z,103168.88
2024-01-09T03:53:19.483Z,103177.25
2024-01-09T03:55:47.066Z,103178.47
2024-01-09T03:58:14.021Z,103188.47
2024-01-09T04:00:40.704Z,103194.44
2024-01-09T04:03:07.545Z,103191.75
2024-01-09T04:05:34.343Z,103194.94
2024-01-09T04:08:01.090Z,103192.22
2024-01-09T04:10:27.728Z,103189.84
2024-01-09T04:12:54.541Z,103185.56
2024-01-09T04:15:21.187Z,103184.38
2024-01-09T04:17:47.883Z,103184.03
2024-01-09T04:20:17.064Z,103185.72
2024-01-09T04:22:43.780Z,103184.22
2024-01-09T04:25:10.594Z,103187.06
2024-01-09T04:27:37.365Z,103185.16
2024-01-09T04:30:04.456Z,103189.25
2024-01-09T04:32:31.195Z,103182.63
2024-01-09T04:34:58.882Z,103177.91
2024-01-09T04:37:25.474Z,103178.88
2024-01-09T04:39:52.047Z,103184.91
2024-01-09T04:42:18.650Z,103187.03
2024-01-09T04:44:45.273Z,103188.78
2024-01-09T04:47:16.809Z,103172.97
2024-01-09T04:49:44.468Z,103172.47
2024-01-09T04:52:11.471Z,103165.84
2024-01-09T04:54:38.156Z,103165.03
2024-01-09T04:57:04.969Z,103160.78
2024-01-09T04:59:31.726Z,103162.75
2024-01-09T05:02:01.882Z,103155.66
2024-01-09T05:04:33.963Z,103166.03
2024-01-09T05:07:00.556Z,103164.72
2024-01-09T05:09:27.618Z,103164.19
2024-01-09T05:11:54.322Z,103163.97
2024-01-09T05:14:20.986Z,103168.41
2024-01-09T05:16:47.670Z,103163.25
2024-01-09T05:19:14.503Z,103158.88
2024-01-09T05:21:41.183Z,103160.69
2024-01-09T05:24:07.992Z,103152.91
2024-01-09T05:26:34.669Z,103152.97
2024-01-09T05:29:01.286Z,103162.81
2024-01-09T05:31:29.240Z,103169.81
2024-01-09T05:33:56.219Z,103169.56
2024-01-09T05:36:23.978Z,103170.84
2024-01-09T05:38:52.864Z,103174.81
2024-01-09T05:41:25.478Z,103166.94
2024-01-09T05:43:54.326Z,103160.19
2024-01-09T05:46:23.416Z,103160.16
2024-01-09T05:48:50.262Z,103158.25
2024-01-09T05:51:17.126Z,103163.47
2024-01-09T05:53:51.261Z,103158.38
2024-01-09T05:56:18.546Z,103156.81
2024-01-09T05:58:47.428Z,103156.06
2024-01-09T06:01:14.149Z,103158.06
2024-01-09T06:03:43.063Z,103160.16
2024-01-09T06:06:12.074Z,103157.81
2024-01-09T06:08:38.768Z,103164.97
2024-01-09T06:11:05.545Z,103157.56
2024-01-09T06:13:32.169Z,103158.81
2024-01-09T06:15:58.795Z,103152.19
2024-01-09T06:18:25.521Z,103152.25
2024-01-09T06:20:54.583Z,103150.38
2024-01-09T06:23:21.374Z,103160.00
2024-01-09T06:25:48.082Z,103151.78
2024-01-09T06:28:14.695Z,103146.75
2024-01-09T06:30:41.401Z,103158.31
2024-01-09T06:33:08.428Z,103147.38
2024-01-09T06:35:35.176Z,103159.41
2024-01-09T06:38:02.081Z,103153.53
2024-01-09T06:40:28.916Z,103157.72
2024-01-09T06:42:57.683Z,103160.59
2024-01-09T06:45:24.284Z,103163.94
2024-01-09T06:47:50.981Z,103158.19
2024-01-09T06:50:26.483Z,103161.53
2024-01-09T06:53:00.443Z,103154.63
2024-01-09T06:55:27.209Z,103154.41
2024-01-09T06:57:53.946Z,103153.03
2024-01-09T07:00:21.220Z,103158.78
2024-01-09T07:02:47.965Z,103160.19
2024-01-09T07:05:15.111Z,103168.69
2024-01-09T07:07:49.282Z,103168.13
2024-01-09T07:10:17.662Z,103158.09
2024-01-09T07:12:46.959Z,103175.22
2024-01-09T07:15:16.744Z,103181.00
2024-01-09T07:17:46.194Z,103183.97
2024-01-09T07:20:13.181Z,103178.66
2024-01-09T07:22:40.942Z,103176.47
2024-01-09T07:25:08.725Z,103185.75
2024-01-09T07:27:35.904Z,103187.63
2024-01-09T07:30:05.847Z,103194.97
2024-01-09T07:32:32.801Z,103194.34
2024-01-09T07:34:59.528Z,103188.25
2024-01-09T07:37:26.166Z,103178.22
2024-01-09T07:39:53.221Z,103194.53
2024-01-09T07:42:19.933Z,103193.59
2024-01-09T07:44:46.696Z,103196.91
2024-01-09T07:47:15.478Z,103191.44
2024-01-09T07:49:42.332Z,103202.41
2024-01-09T07:52:10.213Z,103201.78
2024-01-09T07:54:36.901Z,103212.81
2024-01-09T07:57:03.763Z,103213.97
2024-01-09T07:59:30.430Z,103215.38
2024-01-09T08:01:57.305Z,103214.13
2024-01-09T08:04:24.069Z,103219.94
2024-01-09T08:06:54.592Z,103219.28
2024-01-09T08:09:21.611Z,103216.72
2024-01-09T08:11:48.571Z,103221.41
2024-01-09T08:14:15.679Z,103219.38
2024-01-09T08:16:42.967Z,103218.78
2024-01-09T08:19:10.540Z,103225.66
2024-01-09T08:21:40.782Z,103223.53
2024-01-09T08:24:09.572Z,103219.53
2024-01-09T08:26:36.351Z,103214.31
2024-01-09T08:29:04.889Z,103212.84
2024-01-09T08:31:34.076Z,103222.91
2024-01-09T08:34:00.866Z,103219.00
2024-01-09T08:36:28.087Z,103213.47
2024-01-09T08:38:54.824Z,103225.31
2024-01-09T08:41:24.550Z,103219.81
2024-01-09T08:43:51.186Z,103216.25
2024-01-09T08:46:17.797Z,103220.94
2024-01-09T08:48:44.685Z,103214.63
2024-01-09T08:51:15.208Z,103223.69
2024-01-09T08:53:44.861Z,103209.91
2024-01-09T08:56:14.745Z,103213.00
2024-01-09T08:58:41.464Z,103219.00
2024-01-09T09:01:08.130Z,103204.59
2024-01-09T09:03:34.856Z,103206.53
2024-01-09T09:06:02.135Z,103206.88
2024-01-09T09:08:29.387Z,103211.56
2024-01-09T09:10:59.265Z,103219.47
2024-01-09T09:13:26.699Z,103212.84
2024-01-09T09:15:53.337Z,103218.50
2024-01-09T09:18:20.238Z,103226.56
2024-01-09T09:20:47.028Z,103213.75
2024-01-09T09:23:13.719Z,103205.72
2024-01-09T09:25:40.894Z,103216.09
2024-01-09T09:28:07.772Z,103217.97
2024-01-09T09:30:34.564Z,103215.81
2024-01-09T09:33:01.346Z,103201.03
2024-01-09T09:35:29.095Z,103199.69
2024-01-09T09:37:55.756Z,103203.00
2024-01-09T09:40:23.341Z,103208.16
2024-01-09T09:42:56.987Z,103199.78
2024-01-09T09:45:26.244Z,103207.88
2024-01-09T09:47:56.162Z,103205.59
2024-01-09T09:50:23.581Z,103205.19
2024-01-09T09:52:50.907Z,103207.16
2024-01-09T09:55:22.216Z,103212.78
2024-01-09T09:57:48.930Z,103201.56
2024-01-09T10:00:15.908Z,103202.31
2024-01-09T10:02:50.821Z,103199.97
2024-01-09T10:05:20.427Z,103201.31
2024-01-09T10:07:51.776Z,103210.81
2024-01-09T10:10:20.296Z,103197.63
2024-01-09T10:12:49.603Z,103189.44
2024-01-09T10:15:18.802Z,103195.50
2024-01-09T10:17:46.550Z,103195.59
2024-01-09T10:20:17.320Z,103183.66
2024-01-09T10:22:44.560Z,103185.91
2024-01-09T10:25:15.193Z,103188.56
2024-01-09T10:27:42.218Z,103184.19
2024-01-09T10:30:12.499Z,103188.56
2024-01-09T10:32:44.909Z,103179.03
2024-01-09T10:35:15.148Z,103190.53
2024-01-09T10:37:44.979Z,103176.19
2024-01-09T10:40:12.375Z,103175.78
2024-01-09T10:42:47.122Z,103176.50
2024-01-09T10:45:15.247Z,103177.28
2024-01-09T10:47:45.288Z,103185.97
2024-01-09T10:50:12.928Z,103170.84
2024-01-09T10:52:39.949Z,103177.59
2024-01-09T10:55:09.424Z,103177.91
2024-01-09T10:57:36.999Z,103171.53
2024-01-09T11:00:09.730Z,103174.31
2024-01-09T11:02:39.702Z,103175.88
2024-01-09T11:05:08.150Z,103173.47
2024-01-09T11:07:35.201Z,103173.00
2024-01-09T11:10:05.059Z,103175.28
2024-01-09T11:12:38.460Z,103172.88
2024-01-09T11:15:22.755Z,103166.06
2024-01-09T11:17:55.442Z,103163.25
2024-01-09T11:20:22.555Z,103162.13
2024-01-09T11:22:49.397Z,103155.38
2024-01-09T11:25:22.942Z,103152.97
2024-01-09T11:27:53.488Z,103155.31
2024-01-09T11:30:28.788Z,103147.75
2024-01-09T11:33:16.344Z,103149.22
2024-01-09T11:35:44.115Z,103147.19
2024-01-09T11:38:12.968Z,103151.16
2024-01-09T11:40:40.312Z,103146.53
2024-01-09T11:43:06.979Z,103155.00
2024-01-09T11:45:34.050Z,103159.81
2024-01-09T11:48:03.054Z,103145.66
2024-01-09T11:50:29.825Z,103152.28
2024-01-09T11:52:57.811Z,103150.03
2024-01-09T11:55:25.148Z,103152.53
2024-01-09T11:57:53.352Z,103156.94
2024-01-09T12:00:20.353Z,103154.53
2024-01-09T12:02:46.969Z,103151.81
2024-01-09T12:05:15.870Z,103145.44
2024-01-09T12:07:44.728Z,103141.41
2024-01-09T12:10:21.273Z,103137.84
2024-01-09T12:13:01.276Z,103132.63
2024-01-09T12:15:27.921Z,103135.69
2024-01-09T12:17:58.752Z,103130.84
2024-01-09T12:20:25.828Z,103124.28
2024-01-09T12:22:52.895Z,103127.63
2024-01-09T12:25:19.713Z,103125.81
2024-01-09T12:27:46.814Z,103116.63
2024-01-09T12:30:15.550Z,103120.16
2024-01-09T12:32:42.944Z,103128.06
2024-01-09T12:35:12.497Z,103109.66
2024-01-09T12:37:39.376Z,103119.91
2024-01-09T12:40:16.275Z,103114.66
2024-01-09T12:42:45.144Z,103106.28
2024-01-09T12:45:12.425Z,103099.47
2024-01-09T12:47:39.325Z,103109.00
2024-01-09T12:50:10.617Z,103097.06
2024-01-09T12:52:37.374Z,103095.81
2024-01-09T12:55:08.017Z,103083.94
2024-01-09T12:57:35.566Z,103081.84
2024-01-09T13:00:11.168Z,103081.56
2024-01-09T13:02:38.868Z,103076.13
2024-01-09T13:05:06.054Z,103069.50
2024-01-09T13:07:32.719Z,103067.19
2024-01-09T13:09:59.333Z,103066.47
2024-01-09T13:12:35.515Z,103069.88
2024-01-09T13:15:02.264Z,103078.56
2024-01-09T13:17:29.333Z,103057.59
2024-01-09T13:19:56.466Z,103059.34
2024-01-09T13:24:53.766Z,103045.03
2024-01-09T13:27:21.023Z,103040.56
2024-01-09T13:32:17.216Z,103044.16
2024-01-09T13:34:46.294Z,103041.19
2024-01-09T13:37:13.546Z,103040.66
2024-01-09T13:39:43.075Z,103042.44
2024-01-09T13:42:10.073Z,103030.59
2024-01-09T13:44:37.101Z,103037.06
2024-01-09T13:47:03.772Z,103030.31
2024-01-09T13:49:30.772Z,103021.56
2024-01-09T13:52:00.021Z,103029.16
2024-01-09T13:54:27.038Z,103023.25
2024-01-09T13:56:54.442Z,103024.91
2024-01-09T13:59:24.533Z,103024.50
2024-01-09T14:01:51.915Z,103020.88
2024-01-09T14:04:19.318Z,103012.06
2024-01-09T14:06:47.380Z,103018.00
2024-01-09T14:09:14.183Z,103023.13
2024-01-09T14:11:40.949Z,103016.75
2024-01-09T14:14:07.776Z,103014.34
2024-01-09T14:16:34.593Z,103028.28
2024-01-09T14:19:04.383Z,103019.44
2024-01-09T14:21:33.687Z,103018.25
2024-01-09T14:24:01.023Z,103026.97
2024-01-09T14:26:27.691Z,103025.00
2024-01-09T14:28:54.431Z,103032.13
2024-01-09T14:31:21.176Z,103025.38
2024-01-09T14:33:47.938Z,103027.31
2024-01-09T14:36:14.832Z,103030.06
2024-01-09T14:38:41.525Z,103016.09
2024-01-09T14:41:11.632Z,103014.84
2024-01-09T14:43:42.390Z,103016.41
2024-01-09T14:46:15.912Z,103014.78
2024-01-09T14:48:44.872Z,103016.34
2024-01-09T14:51:11.614Z,103015.94
2024-01-09T14:53:41.705Z,103007.59
2024-01-09T14:56:08.480Z,103020.38
2024-01-09T14:58:35.475Z,103006.19
2024-01-09T15:01:02.417Z,103004.38
2024-01-09T15:03:29.231Z,102996.59
2024-01-09T15:05:56.045Z,103000.78
2024-01-09T15:08:23.527Z,103007.69
2024-01-09T15:10:50.409Z,103003.81
2024-01-09T15:13:17.137Z,103011.47
2024-01-09T15:15:46.279Z,103003.91
2024-01-09T15:18:13.088Z,102997.56
2024-01-09T15:20:39.729Z,102987.97
2024-01-09T15:23:06.486Z,102990.78
2024-01-09T15:25:33.204Z,102977.19
2024-01-09T15:28:00.046Z,102977.59
2024-01-09T15:30:26.767Z,102972.00
2024-01-09T15:32:53.522Z,102975.13
2024-01-09T15:35:20.347Z,102980.69
2024-01-09T15:37:47.137Z,102980.66
2024-01-09T15:40:15.405Z,102970.66
2024-01-09T15:42:42.550Z,102976.19
2024-01-09T15:45:13.825Z,102963.78
2024-01-09T15:47:42.284Z,102974.53
2024-01-09T15:50:10.992Z,102972.91
2024-01-09T15:52:38.099Z,102969.31
2024-01-09T15:55:05.154Z,102971.28
2024-01-09T15:57:31.875Z,102972.84
2024-01-09T16:00:01.341Z,102968.00
2024-01-09T16:02:28.047Z,102976.72
2024-01-09T16:04:57.057Z,102974.69
2024-01-09T16:07:23.724Z,102984.63
2024-01-09T16:09:50.359Z,102985.75
2024-01-09T16:12:17.042Z,102988.88
2024-01-09T16:14:45.911Z,102995.59
2024-01-09T16:17:18.905Z,102988.34
2024-01-09T16:19:47.975Z,102981.50
2024-01-09T16:22:14.667Z,102988.97
2024-01-09T16:24:41.377Z,102977.78
2024-01-09T16:27:08.107Z,102984.06
2024-01-09T16:29:34.735Z,102989.19
2024-01-09T16:32:01.675Z,102984.75
2024-01-09T16:34:29.017Z,102990.63
2024-01-09T16:36:56.120Z,102999.25
2024-01-09T16:39:24.641Z,103009.63
2024-01-09T16:41:52.111Z,103008.28
2024-01-09T16:44:18.996Z,103010.59
2024-01-09T16:46:46.493Z,103017.97
2024-01-09T16:49:15.547Z,103010.94
2024-01-09T16:51:46.311Z,103013.00
2024-01-09T16:54:12.995Z,103020.63
2024-01-09T16:56:41.118Z,103016.91
2024-01-09T16:59:08.019Z,103017.09
2024-01-09T17:01:37.009Z,103021.94
2024-01-09T17:04:06.039Z,103027.09
2024-01-09T17:06:32.771Z,103019.16
2024-01-09T17:08:59.409Z,103023.44
2024-01-09T17:11:26.028Z,103012.28
2024-01-09T17:13:53.282Z,103025.66
2024-01-09T17:16:20.066Z,103026.25
2024-01-09T17:18:46.833Z,103030.88
2024-01-09T17:21:16.372Z,103027.56
2024-01-09T17:23:46.514Z,103027.34
2024-01-09T17:26:13.741Z,103036.69
2024-01-09T17:28:40.416Z,103039.69
2024-01-09T17:31:07.184Z,103037.97
2024-01-09T17:33:34.082Z,103033.16
2024-01-09T17:36:00.885Z,103043.28
2024-01-09T17:38:27.553Z,103025.34
2024-01-09T17:40:54.307Z,103034.66
2024-01-09T17:43:21.090Z,103028.22
2024-01-09T17:45:47.740Z,103034.78
2024-01-09T17:48:14.566Z,103038.94
2024-01-09T17:50:44.350Z,103034.78
2024-01-09T17:53:11.281Z,103044.94
2024-01-09T17:55:40.413Z,103047.56
2024-01-09T17:58:07.317Z,103048.59
2024-01-09T18:00:34.203Z,103042.16
2024-01-09T18:03:01.985Z,103051.50
2024-01-09T18:05:31.005Z,103049.78
2024-01-09T18:08:00.266Z,103065.41
2024-01-09T18:10:27.574Z,103056.19
2024-01-09T18:12:54.374Z,103060.78
2024-01-09T18:15:22.054Z,103055.63
2024-01-09T18:17:49.575Z,103051.47
2024-01-09T18:20:16.453Z,103056.53
2024-01-09T18:22:43.214Z,103050.91
2024-01-09T18:25:13.811Z,103063.78
2024-01-09T18:27:40.745Z,103069.97
2024-01-09T18:30:10.333Z,103072.59
2024-01-09T18:32:37.834Z,103080.75
2024-01-09T18:35:05.731Z,103074.78
2024-01-09T18:37:32.655Z,103080.16
2024-01-09T18:39:59.424Z,103073.25
2024-01-09T18:42:27.355Z,103079.50
2024-01-09T18:44:54.086Z,103073.88
2024-01-09T18:47:20.877Z,103076.09
2024-01-09T18:49:47.664Z,103075.56
2024-01-09T18:52:14.400Z,103079.91
2024-01-09T18:54:41.167Z,103100.06
2024-01-09T18:57:07.922Z,103085.78
2024-01-09T18:59:34.697Z,103083.38
2024-01-09T19:02:05.023Z,103087.59
2024-01-09T19:04:37.313Z,103095.72
2024-01-09T19:07:05.829Z,103088.22
2024-01-09T19:09:32.563Z,103092.22
2024-01-09T19:11:59.214Z,103087.59
2024-01-09T19:14:25.884Z,103088.16
2024-01-09T19:16:54.355Z,103079.28
2024-01-09T19:19:22.618Z,103078.31
2024-01-09T19:21:50.898Z,103081.25
2024-01-09T19:24:18.387Z,103073.53
2024-01-09T19:26:45.602Z,103073.41
2024-01-09T19:29:12.989Z,103072.00
2024-01-09T19:31:43.804Z,103072.69
2024-01-09T19:34:11.860Z,103074.50
2024-01-09T19:36:38.744Z,103071.59
2024-01-09T19:39:05.389Z,103068.72
2024-01-09T19:41:32.285Z,103075.22
2024-01-09T19:43:59.019Z,103069.59
2024-01-09T19:46:28.732Z,103071.41
2024-01-09T19:48:55.450Z,103072.91
2024-01-09T19:51:22.176Z,103076.66
2024-01-09T19:53:48.805Z,103079.41
2024-01-09T19:56:26.819Z,103069.19
2024-01-09T19:58:53.588Z,103076.66
2024-01-09T20:01:20.265Z,103070.31
2024-01-09T20:03:48.447Z,103077.13
2024-01-09T20:06:30.041Z,103073.22
2024-01-09T20:08:56.822Z,103070.91
2024-01-09T20:11:28.312Z,103076.44
2024-01-09T20:13:57.927Z,103076.78
2024-01-09T20:16:24.676Z,103083.44
2024-01-09T20:18:51.495Z,103086.50
2024-01-09T20:21:18.254Z,103087.19
2024-01-09T20:23:45.482Z,103088.66
2024-01-09T20:26:25.530Z,103090.47
2024-01-09T20:28:53.016Z,103082.88
2024-01-09T20:31:20.795Z,103087.94
2024-01-09T20:33:52.200Z,103089.06
2024-01-09T20:36:19.958Z,103086.16
2024-01-09T20:38:47.563Z,103085.22
2024-01-09T20:41:16.690Z,103092.19
2024-01-09T20:43:43.446Z,103094.81
2024-01-09T20:46:10.304Z,103089.16
2024-01-09T20:48:37.778Z,103089.81
2024-01-09T20:51:10.857Z,103094.03
2024-01-09T20:53:39.050Z,103087.25
2024-01-09T20:56:06.786Z,103084.81
2024-01-09T20:58:33.645Z,103089.38
2024-01-09T21:01:00.896Z,103086.50
2024-01-09T21:03:29.145Z,103083.59
2024-01-09T21:05:56.148Z,103089.75
2024-01-09T21:08:22.981Z,103094.00
2024-01-09T21:10:50.031Z,103091.88
2024-01-09T21:13:17.432Z,103088.19
2024-01-09T21:15:44.633Z,103078.63
2024-01-09T21:18:14.688Z,103096.28
2024-01-09T21:20:41.650Z,103096.94
2024-01-09T21:23:08.706Z,103079.94
2024-01-09T21:25:35.691Z,103092.44
2024-01-09T21:28:02.882Z,103077.72
2024-01-09T21:30:29.589Z,103080.66
2024-01-09T21:32:56.318Z,103085.19
2024-01-09T21:35:23.109Z,103084.38
2024-01-09T21:37:52.468Z,103086.97
2024-01-09T21:40:19.361Z,103087.97
2024-01-09T21:42:46.385Z,103089.44
2024-01-09T21:45:15.772Z,103095.59
2024-01-09T21:47:44.872Z,103098.66
2024-01-09T21:50:12.257Z,103096.56
2024-01-09T21:52:39.266Z,103098.81
2024-01-09T21:55:08.037Z,103104.66
2024-01-09T21:57:34.732Z,103102.59
2024-01-09T22:00:01.399Z,103110.66
2024-01-09T22:02:28.143Z,103099.50
2024-01-09T22:04:55.257Z,103106.16
2024-01-09T22:07:21.984Z,103105.66
2024-01-09T22:09:48.877Z,103106.31
2024-01-09T22:12:17.736Z,103105.81
2024-01-09T22:14:45.068Z,103104.84
2024-01-09T22:17:11.715Z,103110.81
2024-01-09T22:19:39.208Z,103106.22
2024-01-09T22:22:08.241Z,103106.09
2024-01-09T22:24:35.026Z,103108.44
2024-01-09T22:27:01.970Z,103113.09
2024-01-09T22:29:28.685Z,103115.28
2024-01-09T22:31:57.810Z,103116.63
2024-01-09T22:34:25.930Z,103116.16
2024-01-09T22:36:54.865Z,103120.88
2024-01-09T22:39:25.647Z,103126.84
2024-01-09T22:41:53.996Z,103112.47
2024-01-09T22:44:23.022Z,103123.63
2024-01-09T22:46:49.790Z,103116.38
2024-01-09T22:49:16.595Z,103118.94
2024-01-09T22:51:43.502Z,103120.41
2024-01-09T22:54:10.359Z,103116.69
2024-01-09T22:56:42.241Z,103124.44
2024-01-09T22:59:09.166Z,103123.16
2024-01-09T23:01:35.942Z,103127.03
2024-01-09T23:04:02.630Z,103125.25
2024-01-09T23:06:29.278Z,103135.78
2024-01-09T23:08:58.508Z,103130.28
2024-01-09T23:11:26.335Z,103135.59
2024-01-09T23:13:53.395Z,103137.06
2024-01-09T23:16:20.053Z,103138.50
2024-01-09T23:18:46.892Z,103142.69
2024-01-09T23:21:18.196Z,103146.59
2024-01-09T23:23:44.880Z,103140.91
2024-01-09T23:26:11.544Z,103141.56
2024-01-09T23:28:38.972Z,103143.81
2024-01-09T23:31:06.046Z,103150.72
2024-01-09T23:33:33.010Z,103142.31
2024-01-09T23:35:59.779Z,103145.41
2024-01-09T23:38:29.525Z,103139.41
2024-01-09T23:40:56.155Z,103136.97
2024-01-09T23:43:22.866Z,103140.38
2024-01-09T23:45:49.501Z,103136.31
2024-01-09T23:48:16.400Z,103135.81
2024-01-09T23:50:43.223Z,103133.72
2024-01-09T23:53:09.876Z,103126.94
2024-01-09T23:55:36.584Z,103131.59
2024-01-09T23:58:05.826Z,103124.03
